Time;durP1;ratioP1;P1;durP2;ratioP2;P2;SDS_P1;SDS_P2;PMS_P1;PMS_P2;Temp;Humidity;BMP_temperature;BMP_pressure;BME280_temperature;BME280_humidity;BME280_pressure;Samples;Min_cycle;Max_cycle;Signal;HPM_P1;HPM_P2
2021/09/29 00:02:11;;;;;;;5.33;2.93;;;13.60;99.90;;;;;;5001676;28;20180;-72
2021/09/29 00:04:36;;;;;;;4.60;2.53;;;13.60;99.90;;;;;;4996898;28;20227;-69
2021/09/29 00:07:02;;;;;;;4.10;2.20;;;13.60;99.90;;;;;;4996409;28;20243;-69
2021/09/29 00:09:28;;;;;;;4.23;2.27;;;13.60;99.90;;;;;;4994019;28;20577;-69
2021/09/29 00:11:54;;;;;;;5.40;2.27;;;13.70;99.90;;;;;;4996340;28;20442;-69
2021/09/29 00:14:19;;;;;;;2.50;1.90;;;13.70;99.90;;;;;;4996642;28;20237;-69
2021/09/29 00:16:45;;;;;;;7.30;2.63;;;13.70;99.90;;;;;;4996465;28;20416;-69
2021/09/29 00:19:10;;;;;;;4.93;2.50;;;13.70;99.90;;;;;;4995144;28;20673;-69
2021/09/29 00:21:36;;;;;;;7.40;2.60;;;13.70;99.90;;;;;;4996644;28;20176;-68
2021/09/29 00:24:02;;;;;;;8.00;2.57;;;13.80;99.90;;;;;;4991527;28;20192;-70
2021/09/29 00:26:27;;;;;;;6.10;2.40;;;13.80;99.90;;;;;;4994282;28;20162;-70
2021/09/29 00:28:53;;;;;;;3.30;2.60;;;13.80;99.90;;;;;;4993704;28;20231;-70
2021/09/29 00:34:01;;;;;;;5.37;2.77;;;13.80;99.90;;;;;;4995723;28;20266;-71
2021/09/29 00:36:26;;;;;;;3.47;2.30;;;13.80;99.90;;;;;;4995119;28;20454;-69
2021/09/29 00:38:52;;;;;;;4.00;2.30;;;13.90;99.90;;;;;;4995048;28;20427;-71
2021/09/29 00:41:19;;;;;;;3.20;2.83;;;13.90;99.90;;;;;;4995532;28;20176;-70
2021/09/29 00:43:44;;;;;;;3.10;2.10;;;13.90;99.90;;;;;;4994261;28;20427;-72
2021/09/29 00:46:10;;;;;;;2.70;2.50;;;13.90;99.90;;;;;;4995599;28;20781;-69
2021/09/29 00:48:35;;;;;;;4.23;2.20;;;13.90;99.90;;;;;;4995462;28;20210;-70
2021/09/29 00:51:01;;;;;;;6.90;2.47;;;13.90;99.90;;;;;;4995480;28;20184;-70
2021/09/29 00:53:27;;;;;;;6.00;2.23;;;13.90;99.90;;;;;;4995313;28;20188;-70
2021/09/29 00:55:52;;;;;;;4.10;2.27;;;13.80;99.90;;;;;;4995406;28;20622;-70
2021/09/29 00:58:18;;;;;;;3.30;2.23;;;13.90;99.90;;;;;;4995523;28;20239;-69
2021/09/29 01:00:43;;;;;;;3.00;2.20;;;13.80;99.90;;;;;;4995828;28;20195;-70
2021/09/29 01:03:10;;;;;;;2.73;1.80;;;13.90;99.90;;;;;;4996772;28;20176;-70
2021/09/29 01:05:40;;;;;;;4.63;2.60;;;13.90;99.90;;;;;;4996841;28;20215;-70
2021/09/29 01:08:16;;;;;;;2.40;2.20;;;13.90;99.90;;;;;;4997144;28;20463;-69
2021/09/29 01:10:58;;;;;;;4.80;2.30;;;13.90;99.90;;;;;;4997574;28;20399;-70
2021/09/29 01:13:53;;;;;;;5.37;2.47;;;13.80;99.90;;;;;;4996963;28;20403;-69
2021/09/29 01:16:20;;;;;;;5.63;2.90;;;13.90;99.90;;;;;;4983333;28;20427;-69
2021/09/29 01:18:55;;;;;;;7.27;2.57;;;13.80;99.90;;;;;;4995796;28;20442;-70
2021/09/29 01:21:22;;;;;;;3.30;2.20;;;13.80;99.90;;;;;;4995375;28;20947;-69
2021/09/29 01:24:02;;;;;;;4.67;2.50;;;13.80;99.90;;;;;;4995121;28;20418;-70
2021/09/29 01:26:31;;;;;;;3.33;2.10;;;13.80;99.90;;;;;;4994673;28;20423;-70
2021/09/29 01:29:09;;;;;;;4.80;2.43;;;13.80;99.90;;;;;;4994676;28;20466;-70
2021/09/29 01:31:36;;;;;;;6.53;2.93;;;13.80;99.90;;;;;;4994958;28;20407;-70
2021/09/29 01:34:03;;;;;;;4.00;2.57;;;13.80;99.90;;;;;;4995006;28;20411;-69
2021/09/29 01:36:30;;;;;;;3.53;2.50;;;13.80;99.90;;;;;;4995667;28;20452;-70
2021/09/29 01:38:58;;;;;;;2.73;2.37;;;13.70;99.90;;;;;;4996878;28;20431;-69
2021/09/29 01:41:29;;;;;;;5.70;2.80;;;13.70;99.90;;;;;;4997091;28;20408;-70
2021/09/29 01:43:56;;;;;;;2.77;1.90;;;13.80;99.90;;;;;;4996958;28;20761;-69
2021/09/29 01:46:23;;;;;;;4.60;3.00;;;13.80;99.90;;;;;;4994018;28;20760;-70
2021/09/29 01:49:15;;;;;;;2.57;2.37;;;13.80;99.90;;;;;;4994738;28;20959;-69
2021/09/29 01:51:47;;;;;;;5.17;2.40;;;13.70;99.90;;;;;;4995243;28;20407;-71
2021/09/29 01:54:15;;;;;;;4.95;2.78;;;13.70;99.90;;;;;;4992282;28;20424;-71
2021/09/29 01:56:42;;;;;;;4.67;2.40;;;13.70;99.90;;;;;;4994112;28;20192;-70
2021/09/29 01:59:08;;;;;;;3.90;2.77;;;13.70;99.90;;;;;;4994514;28;20431;-69
2021/09/29 02:01:38;;;;;;;2.83;1.90;;;13.70;99.90;;;;;;4994739;28;20411;-70
2021/09/29 02:04:05;;;;;;;2.83;2.37;;;13.70;99.90;;;;;;4997008;28;20486;-71
2021/09/29 02:06:49;;;;;;;1.97;1.87;;;13.70;99.90;;;;;;4999391;28;20441;-69
2021/09/29 02:09:16;;;;;;;4.13;2.30;;;13.70;99.90;;;;;;5000539;28;20470;-70
2021/09/29 02:11:42;;;;;;;5.83;2.60;;;13.70;99.90;;;;;;5000484;28;20399;-69
2021/09/29 02:14:08;;;;;;;5.13;2.30;;;13.70;99.90;;;;;;4996794;28;20935;-68
2021/09/29 02:16:34;;;;;;;7.90;2.40;;;13.70;99.90;;;;;;4994405;28;20399;-71
2021/09/29 02:19:00;;;;;;;2.63;2.03;;;13.60;99.90;;;;;;4996782;28;20477;-70
2021/09/29 02:21:26;;;;;;;6.40;2.67;;;13.60;99.90;;;;;;4997842;28;20933;-71
2021/09/29 02:23:51;;;;;;;5.63;2.50;;;13.60;99.90;;;;;;4999395;28;20180;-71
2021/09/29 02:26:17;;;;;;;5.47;2.00;;;13.60;99.90;;;;;;4995199;28;20254;-68
2021/09/29 02:28:42;;;;;;;2.87;2.00;;;13.60;99.90;;;;;;4994223;28;20330;-70
2021/09/29 02:31:08;;;;;;;3.90;2.23;;;13.60;99.90;;;;;;4994796;28;20176;-69
2021/09/29 02:33:33;;;;;;;5.00;2.27;;;13.60;99.90;;;;;;4994270;28;20191;-70
2021/09/29 02:35:59;;;;;;;3.83;2.40;;;13.60;99.90;;;;;;4994522;28;20585;-71
2021/09/29 02:38:25;;;;;;;4.03;2.30;;;13.60;99.90;;;;;;4992579;28;20598;-70
2021/09/29 02:40:50;;;;;;;3.10;1.80;;;13.60;99.90;;;;;;4994165;28;20183;-69
2021/09/29 02:43:16;;;;;;;2.50;2.30;;;13.60;99.90;;;;;;4994517;28;20180;-69
2021/09/29 02:45:43;;;;;;;3.30;2.20;;;13.60;99.90;;;;;;4994436;28;20296;-70
2021/09/29 02:48:08;;;;;;;3.90;2.20;;;13.60;99.90;;;;;;4994362;28;20239;-69
2021/09/29 02:50:34;;;;;;;4.72;2.30;;;13.60;99.90;;;;;;4994052;28;20428;-69
2021/09/29 02:52:59;;;;;;;4.43;2.33;;;13.70;99.90;;;;;;4994095;28;20270;-69
2021/09/29 02:55:25;;;;;;;4.10;2.80;;;13.70;99.90;;;;;;4994960;28;20196;-69
2021/09/29 02:57:53;;;;;;;3.20;2.70;;;13.70;99.90;;;;;;4994958;28;20224;-68
2021/09/29 03:00:18;;;;;;;4.97;2.40;;;13.70;99.90;;;;;;4995404;28;20537;-69
2021/09/29 03:02:44;;;;;;;3.83;2.53;;;13.70;99.90;;;;;;5001137;28;20429;-69
2021/09/29 03:05:10;;;;;;;2.93;2.20;;;13.70;99.90;;;;;;5005950;28;20599;-69
2021/09/29 03:07:35;;;;;;;2.83;2.10;;;13.70;99.90;;;;;;5000454;28;20216;-68
2021/09/29 03:10:01;;;;;;;5.40;2.63;;;13.70;99.90;;;;;;5007925;28;20223;-69
2021/09/29 03:12:26;;;;;;;5.00;3.13;;;13.70;99.90;;;;;;5013290;28;20228;-69
2021/09/29 03:14:52;;;;;;;4.00;2.90;;;13.70;99.90;;;;;;5000648;28;20172;-69
2021/09/29 03:17:17;;;;;;;4.33;2.60;;;13.70;99.90;;;;;;5005460;28;20192;-69
2021/09/29 03:19:43;;;;;;;3.03;2.17;;;13.70;99.90;;;;;;5000090;28;20176;-69
2021/09/29 03:22:08;;;;;;;4.97;2.30;;;13.70;99.90;;;;;;5000248;28;20633;-70
2021/09/29 03:24:34;;;;;;;4.93;2.90;;;13.70;99.90;;;;;;4997245;28;20200;-69
2021/09/29 03:27:00;;;;;;;4.90;2.90;;;13.70;99.90;;;;;;4996708;28;20255;-68
2021/09/29 03:29:25;;;;;;;5.83;2.80;;;13.70;99.90;;;;;;4997611;28;20172;-69
2021/09/29 03:31:51;;;;;;;5.13;2.70;;;13.70;99.90;;;;;;4990298;28;20434;-68
2021/09/29 03:34:17;;;;;;;3.67;2.80;;;13.60;99.90;;;;;;4987323;28;20227;-69
2021/09/29 03:36:42;;;;;;;4.17;3.00;;;13.60;99.90;;;;;;4977711;28;20259;-69
2021/09/29 03:39:08;;;;;;;7.83;3.50;;;13.70;99.90;;;;;;4977746;28;20204;-69
2021/09/29 03:41:33;;;;;;;4.57;3.10;;;13.70;99.90;;;;;;4977233;28;20446;-69
2021/09/29 03:43:59;;;;;;;5.90;2.90;;;13.70;99.90;;;;;;4983991;28;20192;-69
2021/09/29 03:46:25;;;;;;;4.70;3.20;;;13.60;99.90;;;;;;4997167;28;20179;-68
2021/09/29 03:48:50;;;;;;;5.67;2.83;;;13.60;99.90;;;;;;4996941;28;20208;-68
2021/09/29 03:51:16;;;;;;;2.90;2.60;;;13.60;99.90;;;;;;4996922;28;20172;-69
2021/09/29 03:53:41;;;;;;;5.03;3.20;;;13.60;99.90;;;;;;4997336;28;20169;-69
2021/09/29 03:56:07;;;;;;;4.47;2.50;;;13.60;99.90;;;;;;4996189;28;20713;-69
2021/09/29 03:58:32;;;;;;;4.23;3.17;;;13.60;99.90;;;;;;4996758;28;20207;-69
2021/09/29 04:00:58;;;;;;;3.53;3.23;;;13.60;99.90;;;;;;4997307;28;20184;-68
2021/09/29 04:03:24;;;;;;;3.90;2.73;;;13.60;99.90;;;;;;4996694;28;20577;-69
2021/09/29 04:05:49;;;;;;;4.70;2.63;;;13.60;99.90;;;;;;4995980;28;20184;-69
2021/09/29 04:08:16;;;;;;;6.87;3.17;;;13.60;99.90;;;;;;4996553;28;20265;-69
2021/09/29 04:10:41;;;;;;;6.60;3.10;;;13.60;99.90;;;;;;4996545;28;20202;-69
2021/09/29 04:13:07;;;;;;;3.53;3.10;;;13.60;99.90;;;;;;4996798;28;20416;-69
2021/09/29 04:15:34;;;;;;;6.77;3.30;;;13.60;99.90;;;;;;4996736;28;20419;-68
2021/09/29 04:18:00;;;;;;;3.00;2.70;;;13.60;99.90;;;;;;4996460;28;20435;-70
2021/09/29 04:20:26;;;;;;;5.70;2.80;;;13.50;99.90;;;;;;4996693;28;20434;-69
2021/09/29 04:22:53;;;;;;;3.93;2.80;;;13.50;99.90;;;;;;4996154;28;20416;-69
2021/09/29 04:25:20;;;;;;;6.27;3.53;;;13.50;99.90;;;;;;4996245;28;20193;-69
2021/09/29 04:27:45;;;;;;;7.60;3.37;;;13.50;99.90;;;;;;4994834;28;20497;-69
2021/09/29 04:30:14;;;;;;;5.20;3.57;;;13.40;99.90;;;;;;4996007;28;20447;-70
2021/09/29 04:32:43;;;;;;;3.83;2.90;;;13.40;99.90;;;;;;4995172;28;20183;-70
2021/09/29 04:35:10;;;;;;;5.63;3.23;;;13.40;99.90;;;;;;4995863;28;20776;-69
2021/09/29 04:37:36;;;;;;;5.80;3.50;;;13.30;99.90;;;;;;4995086;28;20767;-69
2021/09/29 04:40:02;;;;;;;5.05;3.30;;;13.30;99.90;;;;;;4995447;28;20409;-69
2021/09/29 04:42:28;;;;;;;5.17;3.10;;;13.30;99.90;;;;;;4995271;28;20563;-70
2021/09/29 04:44:53;;;;;;;3.10;2.80;;;13.30;99.90;;;;;;4996584;28;20494;-69
2021/09/29 04:47:19;;;;;;;3.17;2.90;;;13.20;99.90;;;;;;4988922;28;20231;-69
2021/09/29 04:49:44;;;;;;;7.50;3.73;;;13.20;99.90;;;;;;4977981;28;20788;-70
2021/09/29 04:52:10;;;;;;;4.23;3.43;;;13.20;99.90;;;;;;4976510;28;20169;-68
2021/09/29 04:54:36;;;;;;;7.83;3.50;;;13.20;99.90;;;;;;4995762;28;20210;-70
2021/09/29 04:57:01;;;;;;;3.70;3.03;;;13.20;99.90;;;;;;4994089;28;20177;-70
2021/09/29 04:59:27;;;;;;;10.20;3.80;;;13.30;99.90;;;;;;4995244;28;20176;-70
2021/09/29 05:01:53;;;;;;;4.10;3.50;;;13.20;99.90;;;;;;4995848;28;20238;-70
2021/09/29 05:04:23;;;;;;;7.90;3.83;;;13.20;99.90;;;;;;4995233;28;20721;-69
2021/09/29 05:06:49;;;;;;;6.00;4.00;;;13.20;99.90;;;;;;4995742;28;20439;-69
2021/09/29 05:09:15;;;;;;;5.17;3.73;;;13.20;99.90;;;;;;4995644;28;20436;-69
2021/09/29 05:11:47;;;;;;;10.90;3.40;;;13.20;99.90;;;;;;5000287;28;20457;-69
2021/09/29 05:14:13;;;;;;;4.90;3.70;;;13.20;99.90;;;;;;5002418;28;20419;-69
2021/09/29 05:16:40;;;;;;;3.93;3.03;;;13.10;99.90;;;;;;5003372;28;20420;-69
2021/09/29 05:19:06;;;;;;;8.07;3.87;;;13.10;99.90;;;;;;5004928;28;20200;-68
2021/09/29 05:21:33;;;;;;;7.70;3.97;;;13.20;99.90;;;;;;5003099;28;20423;-69
2021/09/29 05:23:58;;;;;;;5.40;3.50;;;13.20;99.90;;;;;;5005207;28;20181;-69
2021/09/29 05:26:24;;;;;;;3.30;2.97;;;13.20;99.90;;;;;;5005917;28;20458;-68
2021/09/29 05:28:51;;;;;;;4.90;3.70;;;13.20;99.90;;;;;;4999202;28;20216;-69
2021/09/29 05:31:20;;;;;;;5.27;4.73;;;13.20;99.90;;;;;;4985478;28;20181;-70
2021/09/29 05:33:46;;;;;;;5.20;3.40;;;13.20;99.90;;;;;;4982558;28;20951;-70
2021/09/29 05:36:11;;;;;;;6.00;4.33;;;13.20;99.90;;;;;;4985300;28;20444;-69
2021/09/29 05:38:37;;;;;;;4.43;3.07;;;13.20;99.90;;;;;;4988937;28;20518;-70
2021/09/29 05:41:02;;;;;;;4.53;3.67;;;13.30;99.90;;;;;;4992869;28;20436;-69
2021/09/29 05:43:28;;;;;;;5.87;3.30;;;13.30;99.90;;;;;;4994746;28;20263;-70
2021/09/29 05:45:54;;;;;;;6.93;3.40;;;13.30;99.90;;;;;;4993706;28;20200;-70
2021/09/29 05:48:20;;;;;;;3.90;3.50;;;13.30;99.90;;;;;;4994658;28;20278;-71
2021/09/29 05:50:45;;;;;;;5.13;4.27;;;13.40;99.90;;;;;;4993597;28;20188;-70
2021/09/29 05:53:11;;;;;;;7.37;3.50;;;13.40;99.90;;;;;;4987047;28;20452;-71
2021/09/29 05:55:37;;;;;;;3.00;2.70;;;13.50;99.90;;;;;;4988929;28;20677;-69
2021/09/29 05:58:03;;;;;;;6.90;3.13;;;13.50;99.90;;;;;;5007607;28;20446;-71
2021/09/29 06:00:28;;;;;;;5.70;3.30;;;13.50;99.90;;;;;;4983218;28;20779;-70
2021/09/29 06:02:54;;;;;;;7.00;3.03;;;13.50;99.90;;;;;;4973451;28;20313;-70
2021/09/29 06:05:21;;;;;;;3.83;3.43;;;13.60;99.90;;;;;;4984837;28;20232;-70
2021/09/29 06:07:48;;;;;;;7.80;3.57;;;13.60;99.90;;;;;;4985312;28;20227;-68
2021/09/29 06:10:13;;;;;;;4.63;3.10;;;13.60;99.90;;;;;;4987001;28;20998;-72
2021/09/29 06:12:40;;;;;;;5.10;2.67;;;13.70;99.90;;;;;;4997413;28;20463;-71
2021/09/29 06:15:07;;;;;;;3.30;2.73;;;13.70;99.90;;;;;;4990867;28;20228;-71
2021/09/29 06:17:47;;;;;;;5.13;2.93;;;13.80;99.90;;;;;;4990396;28;20443;-70
2021/09/29 06:20:13;;;;;;;4.53;3.20;;;13.90;99.90;;;;;;5004855;28;20650;-72
2021/09/29 06:22:39;;;;;;;4.23;2.40;;;13.90;99.90;;;;;;4997723;28;20443;-71
2021/09/29 06:25:06;;;;;;;8.33;3.53;;;13.90;99.90;;;;;;4993370;28;20467;-71
2021/09/29 06:27:32;;;;;;;3.77;3.27;;;14.00;99.90;;;;;;4996917;28;20199;-72
2021/09/29 06:29:58;;;;;;;3.50;2.63;;;14.10;99.90;;;;;;5024608;28;20552;-71
2021/09/29 06:32:24;;;;;;;6.53;3.00;;;14.10;99.90;;;;;;5006910;28;20525;-68
2021/09/29 06:34:49;;;;;;;4.43;2.53;;;14.20;99.90;;;;;;4994363;28;20431;-71
2021/09/29 06:37:16;;;;;;;3.37;2.47;;;14.20;99.90;;;;;;4990520;28;20641;-70
2021/09/29 06:39:41;;;;;;;3.20;2.60;;;14.20;99.90;;;;;;4990229;28;20208;-70
2021/09/29 06:42:07;;;;;;;3.60;2.90;;;14.20;99.90;;;;;;4989462;28;20448;-70
2021/09/29 06:44:33;;;;;;;4.97;2.63;;;14.20;99.90;;;;;;4989939;28;20462;-69
2021/09/29 06:47:01;;;;;;;6.27;2.23;;;14.20;99.90;;;;;;5004976;28;20234;-71
2021/09/29 06:49:27;;;;;;;3.40;2.20;;;14.20;99.90;;;;;;5011995;28;20449;-70
2021/09/29 06:51:53;;;;;;;5.87;2.93;;;14.20;99.90;;;;;;5015954;28;20962;-70
2021/09/29 06:54:18;;;;;;;5.27;2.77;;;14.30;99.90;;;;;;4995246;28;20231;-72
2021/09/29 06:56:45;;;;;;;3.87;2.50;;;14.30;99.90;;;;;;4986830;28;20458;-70
2021/09/29 06:59:10;;;;;;;4.60;2.93;;;14.30;99.90;;;;;;4998633;28;20200;-70
2021/09/29 07:01:36;;;;;;;7.97;2.80;;;14.30;99.90;;;;;;4997961;28;20415;-71
2021/09/29 07:04:02;;;;;;;4.97;2.73;;;14.30;99.90;;;;;;5016772;28;20187;-72
2021/09/29 07:06:29;;;;;;;4.27;3.10;;;14.30;99.90;;;;;;5001126;28;20204;-70
2021/09/29 07:08:54;;;;;;;3.33;3.03;;;14.20;99.90;;;;;;4997628;28;20212;-68
2021/09/29 07:11:20;;;;;;;6.53;3.00;;;14.20;99.90;;;;;;4997824;28;20442;-70
2021/09/29 07:13:46;;;;;;;3.83;2.90;;;14.20;99.90;;;;;;4998253;28;20187;-71
2021/09/29 07:16:12;;;;;;;5.70;2.47;;;14.30;99.90;;;;;;4998055;28;20576;-70
2021/09/29 07:18:39;;;;;;;4.00;3.40;;;14.20;99.90;;;;;;4997824;28;20220;-70
2021/09/29 07:21:05;;;;;;;4.00;3.00;;;14.20;99.90;;;;;;4998020;28;20399;-72
2021/09/29 07:23:31;;;;;;;9.03;4.57;;;14.20;99.90;;;;;;4998387;28;20833;-70
2021/09/29 07:25:57;;;;;;;6.10;4.03;;;14.20;99.90;;;;;;4997950;28;20923;-70
2021/09/29 07:28:22;;;;;;;7.50;3.67;;;14.20;99.90;;;;;;4997823;28;20215;-70
2021/09/29 07:30:48;;;;;;;3.53;3.20;;;14.20;99.90;;;;;;4997746;28;20625;-70
2021/09/29 07:33:15;;;;;;;3.50;2.93;;;14.20;99.90;;;;;;4997590;28;20195;-70
2021/09/29 07:35:41;;;;;;;3.67;3.00;;;14.30;99.90;;;;;;4998357;28;20256;-70
2021/09/29 07:38:07;;;;;;;6.30;2.97;;;14.20;99.90;;;;;;4995905;28;20439;-70
2021/09/29 07:40:34;;;;;;;6.83;2.97;;;14.30;99.90;;;;;;4997526;28;20415;-70
2021/09/29 07:42:59;;;;;;;3.47;3.17;;;14.20;99.90;;;;;;4996802;28;20525;-70
2021/09/29 07:45:25;;;;;;;3.30;3.00;;;14.20;99.90;;;;;;4997751;28;20891;-71
2021/09/29 07:47:52;;;;;;;3.70;3.40;;;14.20;99.90;;;;;;4994129;28;20211;-70
2021/09/29 07:50:19;;;;;;;6.70;3.20;;;14.20;99.90;;;;;;5000008;28;20184;-70
2021/09/29 07:52:45;;;;;;;5.30;3.20;;;14.20;99.90;;;;;;5000795;28;20407;-70
2021/09/29 07:55:12;;;;;;;8.20;3.20;;;14.20;99.90;;;;;;4999693;28;20416;-70
2021/09/29 07:57:38;;;;;;;7.00;3.53;;;14.20;99.90;;;;;;5001245;28;20431;-70
2021/09/29 08:00:06;;;;;;;4.87;3.70;;;14.30;99.90;;;;;;5002044;28;20412;-68
2021/09/29 08:02:31;;;;;;;6.13;3.70;;;14.30;99.90;;;;;;5007193;28;20415;-70
2021/09/29 08:05:01;;;;;;;3.83;3.00;;;14.40;99.90;;;;;;5001443;28;20863;-71
2021/09/29 08:07:26;;;;;;;7.30;3.87;;;14.50;99.90;;;;;;4996454;28;20801;-70
2021/09/29 08:09:52;;;;;;;6.00;3.33;;;14.50;99.90;;;;;;4998186;28;20445;-70
2021/09/29 08:12:17;;;;;;;5.23;3.50;;;14.40;99.90;;;;;;4999880;28;20196;-70
2021/09/29 08:14:43;;;;;;;5.27;4.10;;;14.40;99.90;;;;;;5000463;28;20235;-69
2021/09/29 08:17:09;;;;;;;5.83;3.80;;;14.30;99.90;;;;;;4998408;28;20180;-69
2021/09/29 08:19:35;;;;;;;4.50;3.00;;;14.40;99.90;;;;;;4996435;28;20169;-70
2021/09/29 08:22:04;;;;;;;3.40;3.10;;;14.40;99.90;;;;;;4996666;28;20164;-69
2021/09/29 08:24:40;;;;;;;5.33;3.40;;;14.40;99.90;;;;;;4996359;28;20462;-69
2021/09/29 08:37:53;;;;;;;4.20;2.77;;;14.30;99.90;;;;;;4996433;28;20509;-69
2021/09/29 08:42:44;;;;;;;5.30;4.50;;;14.20;99.90;;;;;;4996469;28;20427;-71
2021/09/29 08:48:02;;;;;;;7.23;3.53;;;14.10;99.90;;;;;;4993707;28;20931;-71
2021/09/29 09:15:38;;;;;;;3.90;3.53;;;14.40;99.90;;;;;;4994794;28;20462;-69
2021/09/29 09:18:05;;;;;;;5.13;3.70;;;14.60;99.90;;;;;;4995242;28;20470;-69
2021/09/29 09:20:31;;;;;;;6.63;3.43;;;14.60;99.90;;;;;;4995850;28;20414;-69
2021/09/29 09:22:57;;;;;;;3.53;3.23;;;14.60;99.90;;;;;;4996331;28;20403;-69
2021/09/29 09:25:52;;;;;;;4.30;3.33;;;14.50;99.90;;;;;;4990156;28;20271;-69
2021/09/29 09:28:28;;;;;;;6.30;4.00;;;14.50;99.90;;;;;;4951637;28;20491;-68
2021/09/29 09:31:06;;;;;;;7.50;3.10;;;14.40;99.90;;;;;;4943344;29;20521;-70
2021/09/29 09:33:31;;;;;;;9.20;4.37;;;14.30;99.90;;;;;;4950199;28;20436;-70
2021/09/29 09:35:57;;;;;;;5.77;4.17;;;14.30;99.90;;;;;;4951567;29;20425;-69
2021/09/29 09:38:25;;;;;;;4.50;3.67;;;14.30;99.90;;;;;;4952673;29;20213;-69
2021/09/29 09:40:59;;;;;;;5.27;4.43;;;14.30;99.90;;;;;;4969911;28;20197;-70
2021/09/29 09:43:26;;;;;;;4.90;3.80;;;14.40;99.90;;;;;;4971972;29;20448;-71
2021/09/29 09:45:53;;;;;;;6.27;3.47;;;14.40;99.90;;;;;;4967868;29;20464;-71
2021/09/29 09:48:22;;;;;;;4.60;4.20;;;14.40;99.90;;;;;;4973981;29;20496;-70
2021/09/29 09:50:53;;;;;;;15.67;11.70;;;14.30;99.90;;;;;;4975060;29;20529;-71
2021/09/29 09:53:19;;;;;;;5.50;4.87;;;14.20;99.90;;;;;;4972796;29;20440;-71
2021/09/29 09:55:44;;;;;;;6.67;4.77;;;14.10;99.90;;;;;;4951366;29;20425;-70
2021/09/29 09:58:10;;;;;;;6.57;4.90;;;14.10;99.90;;;;;;4950076;29;20271;-69
2021/09/29 10:00:36;;;;;;;6.20;4.67;;;14.20;99.90;;;;;;4934169;29;20603;-69
2021/09/29 10:03:02;;;;;;;8.40;4.80;;;14.20;99.90;;;;;;4960248;28;20416;-71
2021/09/29 10:05:30;;;;;;;5.00;4.50;;;14.10;99.90;;;;;;4999509;28;20423;-71
2021/09/29 10:07:57;;;;;;;4.37;3.83;;;14.10;99.90;;;;;;4990877;28;21054;-69
2021/09/29 10:10:30;;;;;;;3.47;3.17;;;13.90;99.90;;;;;;4991498;28;20899;-71
2021/09/29 10:27:16;;;;;;;4.07;3.53;;;13.50;99.90;;;;;;4976138;28;20526;-69
2021/09/29 10:29:48;;;;;;;3.57;3.27;;;13.50;99.90;;;;;;4984758;28;20443;-70
2021/09/29 10:32:16;;;;;;;3.60;3.07;;;13.60;99.90;;;;;;4979971;28;20451;-70
2021/09/29 10:38:01;;;;;;;3.97;3.67;;;13.70;99.90;;;;;;4936432;29;20452;-70
2021/09/29 10:43:05;;;;;;;3.50;3.10;;;13.80;99.90;;;;;;4943590;28;21312;-68
2021/09/29 10:45:41;;;;;;;5.22;3.25;;;14.00;99.90;;;;;;4941200;29;20425;-70
2021/09/29 10:48:31;;;;;;;3.00;2.70;;;14.00;99.90;;;;;;4938086;29;21012;-71
2021/09/29 10:51:53;;;;;;;3.47;2.47;;;14.10;99.90;;;;;;4942189;29;20493;-71
2021/09/29 11:27:44;;;;;;;2.30;2.00;;;14.00;99.90;;;;;;4991021;28;20478;-69
2021/09/29 11:30:24;;;;;;;1.50;1.40;;;13.90;99.90;;;;;;4991172;28;20812;-72
2021/09/29 11:32:58;;;;;;;2.00;1.67;;;13.90;99.90;;;;;;4971074;28;20471;-70
2021/09/29 11:39:01;;;;;;;2.13;1.93;;;14.10;99.90;;;;;;4993935;28;20523;-71
2021/09/29 12:11:25;;;;;;;3.07;2.43;;;15.00;99.90;;;;;;4991691;28;20451;-70
2021/09/29 12:13:57;;;;;;;1.90;1.80;;;15.10;99.90;;;;;;4993279;28;20416;-70
2021/09/29 12:16:31;;;;;;;2.27;2.07;;;15.10;99.90;;;;;;4992926;28;20501;-71
2021/09/29 12:19:04;;;;;;;3.30;2.20;;;15.00;99.90;;;;;;4991045;28;20443;-70
2021/09/29 12:21:33;;;;;;;5.00;2.30;;;14.90;99.90;;;;;;4992605;28;20944;-70
2021/09/29 12:23:59;;;;;;;2.40;2.20;;;14.80;99.90;;;;;;4993397;28;20438;-70
2021/09/29 12:26:27;;;;;;;3.30;3.00;;;14.80;99.90;;;;;;4993206;28;20408;-70
2021/09/29 12:29:08;;;;;;;3.00;2.60;;;14.90;99.90;;;;;;4991279;28;20255;-71
2021/09/29 12:34:23;;;;;;;4.53;3.90;;;15.00;99.90;;;;;;4992587;28;20566;-69
2021/09/29 12:36:48;;;;;;;3.67;3.37;;;14.90;99.90;;;;;;4993250;28;20900;-70
2021/09/29 12:39:19;;;;;;;3.43;3.20;;;14.90;99.90;;;;;;4988245;28;20489;-71
2021/09/29 12:41:50;;;;;;;5.03;2.97;;;14.90;99.90;;;;;;4976393;28;20743;-69
2021/09/29 12:44:18;;;;;;;5.07;3.50;;;14.90;99.90;;;;;;4981091;28;20430;-69
2021/09/29 12:46:49;;;;;;;3.93;3.53;;;15.00;99.90;;;;;;4989994;28;20437;-70
2021/09/29 12:49:21;;;;;;;3.77;3.47;;;15.00;99.90;;;;;;4980077;28;20507;-70
2021/09/29 12:51:58;;;;;;;3.80;3.40;;;15.00;99.90;;;;;;4973992;28;20507;-71
2021/09/29 12:54:25;;;;;;;3.77;3.47;;;15.10;99.90;;;;;;4992005;28;20431;-71
2021/09/29 12:56:50;;;;;;;4.53;3.07;;;15.20;99.90;;;;;;5006458;28;20410;-73
2021/09/29 12:59:16;;;;;;;3.57;3.27;;;15.30;99.90;;;;;;4999663;28;20446;-71
2021/09/29 13:01:41;;;;;;;4.77;4.33;;;15.30;99.90;;;;;;4994846;28;20189;-70
2021/09/29 13:04:07;;;;;;;4.67;3.80;;;15.30;99.90;;;;;;5021267;28;20184;-73
2021/09/29 13:06:32;;;;;;;4.63;3.17;;;15.40;99.90;;;;;;5008223;28;20179;-69
2021/09/29 13:08:58;;;;;;;4.73;4.33;;;15.50;99.90;;;;;;5029014;28;20245;-69
2021/09/29 13:11:24;;;;;;;4.63;3.40;;;15.60;99.90;;;;;;5018140;28;20199;-72
2021/09/29 13:13:49;;;;;;;2.00;1.40;;;15.50;99.90;;;;;;5011908;28;20215;-70
2021/09/29 13:16:15;;;;;;;1.50;1.40;;;14.90;99.90;;;;;;4992241;28;20195;-70
2021/09/29 13:21:50;;;;;;;2.00;1.00;;;13.50;99.90;;;;;;4967968;28;20261;-68
2021/09/29 13:24:23;;;;;;;2.17;1.37;;;12.20;99.90;;;;;;4953354;28;20418;-70
2021/09/29 13:37:30;;;;;;;2.07;1.77;;;11.40;99.90;;;;;;4970390;28;20527;-70
2021/09/29 13:39:55;;;;;;;2.97;2.07;;;11.30;99.90;;;;;;4972116;28;20984;-71
2021/09/29 13:42:21;;;;;;;2.53;2.00;;;11.40;99.90;;;;;;4971526;28;20272;-70
2021/09/29 13:44:46;;;;;;;2.00;1.67;;;11.60;99.90;;;;;;4972289;28;20220;-69
2021/09/29 13:47:12;;;;;;;2.07;1.87;;;11.70;99.90;;;;;;4970694;28;20288;-70
2021/09/29 13:49:38;;;;;;;5.93;2.60;;;11.90;99.90;;;;;;4970498;28;20208;-71
2021/09/29 13:52:05;;;;;;;5.50;1.57;;;12.00;99.90;;;;;;4953543;28;20178;-71
2021/09/29 13:54:31;;;;;;;1.47;1.10;;;12.20;99.90;;;;;;4975972;28;20176;-71
2021/09/29 13:59:41;;;;;;;1.63;1.20;;;12.50;99.90;;;;;;4993054;28;20670;-69
2021/09/29 14:29:48;;;;;;;2.50;1.20;;;13.80;99.90;;;;;;4989610;28;20477;-72
2021/09/29 14:32:28;;;;;;;1.57;1.20;;;14.10;99.90;;;;;;4987800;28;20518;-69
2021/09/29 14:34:54;;;;;;;8.00;1.60;;;14.30;99.90;;;;;;4988721;28;20449;-69
2021/09/29 14:37:20;;;;;;;1.53;1.40;;;14.80;99.90;;;;;;5002406;28;20802;-71
2021/09/29 14:39:46;;;;;;;2.80;1.40;;;14.90;99.90;;;;;;4972772;28;20605;-74
2021/09/29 14:42:11;;;;;;;2.60;1.50;;;15.20;99.90;;;;;;4988850;28;20219;-70
2021/09/29 14:44:37;;;;;;;3.17;1.30;;;15.30;99.90;;;;;;4988644;28;20947;-72
2021/09/29 14:47:10;;;;;;;2.50;1.40;;;15.40;99.90;;;;;;4982439;28;20214;-70
2021/09/29 14:49:40;;;;;;;3.28;1.55;;;15.60;99.90;;;;;;4988440;28;20460;-72
2021/09/29 14:52:06;;;;;;;2.20;1.50;;;15.60;99.90;;;;;;4994241;28;20206;-71
2021/09/29 14:54:31;;;;;;;2.73;1.53;;;15.60;99.90;;;;;;4998184;28;20447;-71
2021/09/29 14:56:57;;;;;;;1.85;1.73;;;15.60;99.90;;;;;;4987818;28;20077;-73
2021/09/29 14:59:23;;;;;;;1.70;1.60;;;15.50;99.90;;;;;;4988710;28;20313;-71
2021/09/29 15:01:48;;;;;;;1.93;1.30;;;15.40;99.90;;;;;;4987307;28;20219;-71
2021/09/29 15:04:14;;;;;;;2.13;1.40;;;15.20;99.90;;;;;;5000238;28;20306;-69
2021/09/29 15:06:40;;;;;;;2.30;1.83;;;15.10;99.90;;;;;;4987891;28;20235;-72
2021/09/29 15:09:06;;;;;;;3.50;2.00;;;15.00;99.90;;;;;;4987228;28;20250;-72
2021/09/29 15:11:31;;;;;;;3.67;2.30;;;15.00;99.90;;;;;;4989372;28;20226;-71
2021/09/29 15:14:04;;;;;;;4.63;1.60;;;14.80;99.90;;;;;;4992376;28;20499;-69
2021/09/29 15:16:32;;;;;;;3.70;2.67;;;14.80;99.90;;;;;;4983063;28;20199;-70
2021/09/29 15:19:08;;;;;;;4.47;3.30;;;14.70;99.90;;;;;;4992226;28;21133;-70
2021/09/29 15:24:08;;;;;;;2.80;1.50;;;14.40;99.90;;;;;;4989387;28;21016;-68
2021/09/29 15:26:49;;;;;;;1.40;1.30;;;14.30;99.90;;;;;;4996747;28;20465;-71
2021/09/29 15:48:20;;;;;;;1.60;1.50;;;14.10;99.90;;;;;;4986781;28;20582;-72
2021/09/29 15:51:02;;;;;;;1.60;1.50;;;14.10;99.90;;;;;;4987620;28;20466;-73
2021/09/29 15:53:42;;;;;;;1.50;1.40;;;14.10;99.90;;;;;;4989401;28;20446;-72
2021/09/29 15:56:16;;;;;;;3.43;1.70;;;14.00;99.90;;;;;;4997774;28;21248;-71
2021/09/29 15:58:54;;;;;;;5.93;1.93;;;13.90;99.90;;;;;;4996640;28;20463;-71
2021/09/29 16:01:39;;;;;;;2.20;1.40;;;14.00;99.90;;;;;;4990008;28;20453;-70
2021/09/29 16:17:13;;;;;;;2.50;1.87;;;13.80;99.90;;;;;;4993860;28;20478;-72
2021/09/29 16:20:06;;;;;;;2.40;1.83;;;13.80;99.90;;;;;;5017920;28;20203;-70
2021/09/29 16:33:32;;;;;;;4.50;2.40;;;13.90;99.90;;;;;;5028527;28;20199;-72